Time;durP1;ratioP1;P1;durP2;ratioP2;P2;SDS_P1;SDS_P2;PMS_P1;PMS_P2;Temp;Humidity;BMP_temperature;BMP_pressure;BME280_temperature;BME280_humidity;BME280_pressure;Samples;Min_cycle;Max_cycle;Signal;HPM_P1;HPM_P2
2022/01/12 00:02:22;;;;;;;10.73;3.97;;;;;;;-4.15;64.95;100188.84;4470097;32;20121;-72
2022/01/12 00:04:50;;;;;;;13.57;5.00;;;;;;;-4.28;65.13;100184.66;4470156;32;20101;-71
2022/01/12 00:07:17;;;;;;;13.85;4.68;;;;;;;-4.36;65.62;100183.81;4470163;32;20119;-72
2022/01/12 00:09:44;;;;;;;14.35;5.82;;;;;;;-4.38;65.75;100190.66;4470296;32;20085;-72
2022/01/12 00:12:12;;;;;;;8.38;4.07;;;;;;;-4.31;65.49;100192.34;4470399;32;20164;-72
2022/01/12 00:14:39;;;;;;;6.78;2.85;;;;;;;-4.21;65.31;100195.69;4470095;32;20112;-72
2022/01/12 00:17:07;;;;;;;6.90;3.28;;;;;;;-4.32;65.42;100196.59;4470026;32;20100;-72
2022/01/12 00:19:34;;;;;;;11.45;3.80;;;;;;;-4.34;65.50;100192.34;4470010;32;20206;-72
2022/01/12 00:22:02;;;;;;;9.00;3.42;;;;;;;-4.37;65.67;100193.22;4485004;32;20096;-72
2022/01/12 00:24:41;;;;;;;7.25;3.22;;;;;;;-4.33;65.43;100194.91;4485769;31;20097;-71
2022/01/12 00:35:26;;;;;;;6.97;3.58;;;;;;;-4.55;65.91;100204.38;4485534;32;20096;-72
2022/01/12 00:37:54;;;;;;;6.00;3.55;;;;;;;-4.58;66.19;100203.56;4485547;31;20428;-72
2022/01/12 00:40:21;;;;;;;9.77;3.67;;;;;;;-4.42;65.51;100204.31;4485574;31;20080;-72
2022/01/12 00:42:48;;;;;;;13.20;4.72;;;;;;;-4.49;65.72;100209.47;4485677;31;20119;-72
2022/01/12 00:45:17;;;;;;;9.85;3.95;;;;;;;-4.51;66.25;100208.62;4484989;31;20138;-72
2022/01/12 00:47:44;;;;;;;14.00;4.75;;;;;;;-4.70;67.40;100207.84;4485066;31;20114;-72
2022/01/12 00:50:12;;;;;;;9.02;3.53;;;;;;;-4.62;67.74;100212.91;4485559;31;20096;-72
2022/01/12 00:52:39;;;;;;;15.30;4.82;;;;;;;-4.71;68.52;100212.97;4485542;31;20145;-72
2022/01/12 00:55:08;;;;;;;10.45;3.87;;;;;;;-4.77;69.21;100215.53;4485463;31;20467;-72
2022/01/12 00:57:35;;;;;;;14.65;6.05;;;;;;;-4.70;69.57;100219.78;4485351;31;20101;-71
2022/01/12 01:00:05;;;;;;;13.43;5.15;;;;;;;-4.88;70.27;100218.12;4485520;31;20088;-72
2022/01/12 01:02:32;;;;;;;14.85;5.62;;;;;;;-5.03;70.99;100217.31;4485460;31;20076;-72
2022/01/12 01:05:01;;;;;;;14.27;5.32;;;;;;;-5.00;71.43;100221.56;4485534;31;20093;-72
2022/01/12 01:07:29;;;;;;;10.27;4.70;;;;;;;-4.93;71.83;100215.59;4485661;31;20535;-72
2022/01/12 01:10:04;;;;;;;10.90;5.40;;;;;;;-4.92;72.19;100214.75;4485470;31;20100;-72
2022/01/12 01:12:34;;;;;;;15.63;6.07;;;;;;;-4.99;72.79;100218.16;4485553;31;20175;-72
2022/01/12 01:15:08;;;;;;;14.35;5.28;;;;;;;-4.94;73.43;100213.87;4485658;31;20093;-72
2022/01/12 01:25:43;;;;;;;13.20;5.25;;;;;;;-5.00;73.43;100212.22;4485374;31;20084;-72
2022/01/12 01:28:12;;;;;;;14.52;6.05;;;;;;;-4.93;72.62;100215.59;4485279;31;20092;-72
2022/01/12 01:30:42;;;;;;;13.73;5.15;;;;;;;-4.94;72.35;100213.87;4485234;31;20088;-72
2022/01/12 01:33:11;;;;;;;11.20;5.28;;;;;;;-5.00;72.42;100213.91;4485156;31;20084;-72
2022/01/12 01:35:49;;;;;;;15.50;5.85;;;;;;;-5.12;72.55;100222.44;4485276;31;20085;-72
2022/01/12 01:38:19;;;;;;;11.73;5.10;;;;;;;-5.11;72.41;100220.75;4485395;31;20084;-72
2022/01/12 01:40:46;;;;;;;12.35;4.18;;;;;;;-5.30;72.42;100225.88;4485448;31;20088;-72
2022/01/12 01:54:18;;;;;;;18.80;5.00;;;;;;;-5.23;74.04;100222.47;4485255;31;20149;-72
2022/01/12 01:56:46;;;;;;;14.75;5.00;;;;;;;-5.35;75.73;100225.03;4484739;32;20515;-72
2022/01/12 01:59:13;;;;;;;21.65;6.43;;;;;;;-5.29;76.26;100245.47;4485382;31;20120;-72
2022/01/12 02:01:41;;;;;;;16.40;6.72;;;;;;;-5.36;76.93;100239.50;4485206;31;20092;-73
2022/01/12 02:04:09;;;;;;;17.80;7.85;;;;;;;-5.37;78.19;100242.06;4485136;32;20092;-74
2022/01/12 02:06:36;;;;;;;16.70;6.97;;;;;;;-5.48;79.50;100236.97;4484971;31;20402;-73
2022/01/12 02:09:04;;;;;;;21.08;7.40;;;;;;;-5.48;80.17;100233.53;4485004;31;20092;-74
2022/01/12 02:11:33;;;;;;;15.65;6.28;;;;;;;-5.67;81.12;100236.09;4485197;31;20087;-74
2022/01/12 02:14:00;;;;;;;18.17;6.80;;;;;;;-5.69;81.47;100235.25;4485067;31;20127;-73
2022/01/12 02:16:36;;;;;;;16.52;7.15;;;;;;;-5.70;81.72;100238.66;4484652;31;20061;-73
2022/01/12 02:19:29;;;;;;;20.62;7.72;;;;;;;-5.72;81.89;100232.72;4484884;31;20141;-74
2022/01/12 02:35:52;;;;;;;13.38;5.43;;;;;;;-6.26;86.22;100243.66;4483481;32;20198;-73
2022/01/12 02:41:07;;;;;;;19.40;7.50;;;;;;;-6.34;88.13;100239.38;4484589;32;20088;-74
2022/01/12 02:53:37;;;;;;;19.67;7.15;;;;;;;-6.52;90.45;100240.19;4483964;31;20450;-73
2022/01/12 02:54:21;;;;;;;18.25;7.20;;;;;;;-6.46;90.73;100255.50;4484400;32;20076;-73
2022/01/12 02:56:48;;;;;;;9.00;5.55;;;;;;;-6.60;91.55;100248.66;4484363;32;20622;-74
2022/01/12 02:59:16;;;;;;;20.83;7.75;;;;;;;-6.54;92.45;100252.94;4484562;31;20104;-74
2022/01/12 03:02:05;;;;;;;17.23;7.20;;;;;;;-6.53;92.83;100253.78;4484099;31;20113;-74
2022/01/12 03:04:30;;;;;;;14.73;6.75;;;;;;;-6.58;93.56;100248.66;4484102;32;20084;-74
2022/01/12 03:07:05;;;;;;;17.33;7.87;;;;;;;-6.56;93.43;100254.59;4484106;31;20164;-73
2022/01/12 03:09:33;;;;;;;13.60;6.75;;;;;;;-6.60;93.24;100256.31;4485242;31;20586;-73
2022/01/12 03:12:01;;;;;;;24.50;9.35;;;;;;;-6.70;94.06;100246.91;4486222;31;20115;-74
2022/01/12 03:14:28;;;;;;;20.58;8.70;;;;;;;-6.78;94.28;100251.97;4486543;31;20497;-73
2022/01/12 03:16:55;;;;;;;22.90;7.85;;;;;;;-6.77;94.18;100257.91;4486046;31;20467;-74
2022/01/12 03:19:24;;;;;;;12.43;4.57;;;;;;;-6.80;94.00;100251.13;4485153;32;20362;-74
2022/01/12 03:21:51;;;;;;;12.40;5.55;;;;;;;-6.76;93.94;100254.53;4486268;31;20484;-74
2022/01/12 03:24:18;;;;;;;20.48;7.80;;;;;;;-6.71;94.01;100252.84;4486457;31;20359;-74
2022/01/12 03:26:46;;;;;;;22.15;8.38;;;;;;;-6.59;93.48;100249.50;4486166;31;20110;-74
2022/01/12 03:29:16;;;;;;;20.35;6.57;;;;;;;-6.57;92.93;100257.16;4486477;31;20459;-73
2022/01/12 03:31:43;;;;;;;15.55;5.03;;;;;;;-6.53;92.52;100259.72;4485999;31;20172;-74
2022/01/12 03:34:30;;;;;;;15.77;7.43;;;;;;;-6.40;91.37;100259.75;4486104;31;20092;-74
2022/01/12 03:39:44;;;;;;;20.73;7.50;;;;;;;-6.37;91.62;100260.66;4486350;31;20076;-74
2022/01/12 03:42:13;;;;;;;24.90;8.85;;;;;;;-6.41;91.89;100256.38;4486289;31;20104;-74
2022/01/12 03:44:40;;;;;;;18.33;6.87;;;;;;;-6.44;91.98;100248.72;4486210;31;20087;-74
2022/01/12 03:47:07;;;;;;;18.23;8.40;;;;;;;-6.38;91.94;100243.63;4485666;31;20143;-74
2022/01/12 03:49:34;;;;;;;22.00;8.20;;;;;;;-6.36;91.52;100251.28;4486234;31;20118;-74
2022/01/12 03:52:02;;;;;;;16.98;6.85;;;;;;;-6.48;91.63;100252.97;4485734;31;20148;-74
2022/01/12 03:54:30;;;;;;;14.82;6.65;;;;;;;-6.42;91.59;100247.00;4486209;31;20575;-74
2022/01/12 03:56:59;;;;;;;22.95;7.70;;;;;;;-6.42;91.86;100255.53;4486017;31;20092;-74
2022/01/12 03:59:26;;;;;;;13.55;7.18;;;;;;;-6.43;92.37;100252.97;4485997;31;20108;-73
2022/01/12 04:01:54;;;;;;;14.35;7.45;;;;;;;-6.43;92.85;100255.53;4485864;32;20123;-74
2022/01/12 04:04:30;;;;;;;15.45;6.87;;;;;;;-6.43;92.93;100252.97;4485883;31;20484;-74
2022/01/12 04:09:44;;;;;;;19.45;8.20;;;;;;;-6.54;93.29;100264.81;4485938;31;20123;-73
2022/01/12 04:12:13;;;;;;;28.23;8.80;;;;;;;-6.53;93.75;100262.28;4485843;31;20096;-73
2022/01/12 04:14:40;;;;;;;22.17;8.65;;;;;;;-6.62;94.19;100257.97;4485921;31;20163;-74
2022/01/12 04:17:08;;;;;;;18.58;8.00;;;;;;;-6.70;94.56;100262.19;4485872;31;20374;-74
2022/01/12 04:19:37;;;;;;;21.50;8.95;;;;;;;-6.67;94.67;100254.56;4485871;31;20105;-74
2022/01/12 04:24:50;;;;;;;13.95;6.93;;;;;;;-6.78;94.00;100261.31;4485726;31;20084;-74
2022/01/12 04:27:17;;;;;;;28.08;10.52;;;;;;;-6.82;94.98;100268.06;4485628;31;20101;-74
2022/01/12 04:29:45;;;;;;;26.37;8.32;;;;;;;-6.93;96.00;100263.75;4485629;31;20347;-74
2022/01/12 04:32:12;;;;;;;20.77;9.18;;;;;;;-6.94;96.22;100262.91;4485871;31;20101;-73
2022/01/12 04:34:39;;;;;;;23.55;9.88;;;;;;;-7.05;96.40;100262.84;4485552;31;20091;-74
2022/01/12 04:37:07;;;;;;;19.27;7.35;;;;;;;-7.08;96.62;100261.97;4485545;31;20426;-74
2022/01/12 04:39:34;;;;;;;26.85;7.25;;;;;;;-7.10;97.05;100261.09;4485808;31;20105;-73
2022/01/12 04:42:02;;;;;;;24.17;7.72;;;;;;;-7.06;96.84;100268.78;4485889;32;20157;-73
2022/01/12 04:44:30;;;;;;;13.13;5.93;;;;;;;-7.21;97.20;100273.75;4485618;31;20165;-74
2022/01/12 04:47:07;;;;;;;29.65;9.57;;;;;;;-7.23;97.32;100267.81;4485255;31;20156;-74
2022/01/12 04:52:05;;;;;;;13.48;6.25;;;;;;;-7.23;97.77;100266.12;4485482;32;20146;-74
2022/01/12 04:54:32;;;;;;;20.77;8.45;;;;;;;-7.23;98.26;100276.28;4485716;31;20509;-74
2022/01/12 04:56:59;;;;;;;19.83;8.48;;;;;;;-7.07;97.68;100274.72;4485477;31;20177;-74
2022/01/12 04:59:27;;;;;;;20.02;5.75;;;;;;;-7.04;97.42;100269.66;4485425;31;20101;-74
2022/01/12 05:01:59;;;;;;;19.50;7.75;;;;;;;-7.05;97.76;100275.56;4485731;31;20587;-74
2022/01/12 05:12:54;;;;;;;17.87;6.32;;;;;;;-7.25;98.04;100287.31;4485546;31;20141;-74
2022/01/12 05:15:32;;;;;;;13.38;5.60;;;;;;;-7.26;98.33;100285.63;4487390;31;20475;-74
2022/01/12 05:17:59;;;;;;;22.50;8.15;;;;;;;-7.25;98.68;100284.75;4469669;32;20077;-73
2022/01/12 05:20:28;;;;;;;19.42;8.55;;;;;;;-7.21;98.50;100291.59;4474353;32;20109;-74
2022/01/12 05:22:55;;;;;;;29.27;8.07;;;;;;;-7.24;98.78;100283.94;4485477;31;20101;-74
2022/01/12 05:25:22;;;;;;;16.35;6.47;;;;;;;-7.12;98.58;100283.16;4485414;31;20171;-73
2022/01/12 05:27:52;;;;;;;19.45;8.35;;;;;;;-7.11;98.31;100287.41;4485481;31;20101;-74
2022/01/12 05:30:19;;;;;;;20.95;7.78;;;;;;;-7.19;98.59;100288.22;4485475;31;20119;-73
2022/01/12 05:32:47;;;;;;;23.98;8.23;;;;;;;-7.25;98.90;100282.22;4485058;31;20104;-74
2022/01/12 05:35:17;;;;;;;25.50;9.57;;;;;;;-7.20;98.62;100300.94;4485439;31;20147;-74
2022/01/12 05:37:44;;;;;;;20.15;8.48;;;;;;;-7.19;98.31;100303.50;4485073;31;20553;-74
2022/01/12 05:40:14;;;;;;;28.58;8.93;;;;;;;-7.32;98.55;100297.44;4485145;32;20174;-74
2022/01/12 05:42:43;;;;;;;21.60;8.85;;;;;;;-7.38;98.51;100297.38;4484001;32;20169;-74
2022/01/12 05:45:11;;;;;;;31.05;9.18;;;;;;;-7.52;98.73;100297.28;4485327;31;20130;-74
2022/01/12 05:50:12;;;;;;;24.00;8.85;;;;;;;-7.51;98.37;100299.00;4485685;31;20085;-74
2022/01/12 05:52:40;;;;;;;22.85;8.90;;;;;;;-7.63;97.77;100295.47;4484913;31;20160;-74
2022/01/12 05:55:08;;;;;;;19.98;7.78;;;;;;;-7.63;98.61;100295.47;4485222;31;20152;-74
2022/01/12 05:57:37;;;;;;;29.15;7.87;;;;;;;-7.65;98.24;100294.59;4485181;31;20118;-74
2022/01/12 06:00:06;;;;;;;27.30;9.13;;;;;;;-7.51;97.68;100301.53;4484438;31;20542;-72
2022/01/12 06:02:40;;;;;;;17.67;6.95;;;;;;;-7.47;96.78;100312.59;4470783;31;20130;-74
2022/01/12 06:05:09;;;;;;;18.55;7.07;;;;;;;-7.36;95.67;100311.00;4473494;32;20204;-74
2022/01/12 06:07:36;;;;;;;12.07;7.07;;;;;;;-7.45;95.73;100303.25;4475163;31;20088;-74
2022/01/12 06:10:05;;;;;;;18.10;7.75;;;;;;;-7.47;95.69;100315.13;4479855;32;20101;-74
2022/01/12 06:12:32;;;;;;;16.87;7.03;;;;;;;-7.47;95.74;100311.75;4482420;31;20100;-74
2022/01/12 06:14:59;;;;;;;14.57;5.47;;;;;;;-7.52;95.79;100319.34;4479403;31;20517;-74
2022/01/12 06:17:27;;;;;;;19.75;5.95;;;;;;;-7.50;96.00;100312.56;4478801;31;20156;-75
2022/01/12 06:19:54;;;;;;;19.67;6.65;;;;;;;-7.63;96.97;100321.78;4478589;31;20597;-74
2022/01/12 06:22:23;;;;;;;11.05;3.75;;;;;;;-7.44;96.55;100332.97;4482956;32;20139;-74
2022/01/12 06:24:52;;;;;;;15.10;5.93;;;;;;;-7.46;96.10;100337.22;4482975;32;20092;-74
2022/01/12 06:27:21;;;;;;;15.10;5.78;;;;;;;-7.48;96.29;100333.78;4481850;32;20558;-74
2022/01/12 06:32:36;;;;;;;18.77;7.50;;;;;;;-7.38;96.45;100338.13;4456317;32;20179;-75
2022/01/12 06:35:04;;;;;;;16.95;6.78;;;;;;;-7.19;95.43;100336.59;4465705;32;20161;-74
2022/01/12 06:37:31;;;;;;;14.68;6.18;;;;;;;-7.23;95.21;100342.50;4463815;32;20092;-73
2022/01/12 06:39:58;;;;;;;17.52;5.65;;;;;;;-7.09;94.66;100349.41;4462980;32;20147;-74
2022/01/12 06:42:26;;;;;;;20.12;7.22;;;;;;;-7.14;93.45;100345.13;4464424;32;20142;-73
2022/01/12 06:44:53;;;;;;;22.92;7.37;;;;;;;-7.25;93.33;100346.75;4465583;32;20176;-74
2022/01/12 06:47:20;;;;;;;17.90;7.93;;;;;;;-7.26;93.55;100351.81;4467728;32;20103;-74
2022/01/12 06:49:47;;;;;;;22.10;7.07;;;;;;;-7.25;93.30;100351.81;4467134;32;20109;-75
2022/01/12 06:52:14;;;;;;;13.00;5.12;;;;;;;-7.28;92.71;100363.66;4459077;32;20136;-75
2022/01/12 06:54:43;;;;;;;11.52;5.28;;;;;;;-7.29;93.21;100361.97;4459518;32;20101;-74
2022/01/12 06:57:10;;;;;;;16.08;6.43;;;;;;;-7.18;93.61;100356.09;4466839;32;20085;-75
2022/01/12 06:59:38;;;;;;;15.07;6.28;;;;;;;-7.09;93.40;100362.13;4463838;32;20125;-74
2022/01/12 07:02:06;;;;;;;16.87;5.20;;;;;;;-6.91;92.70;100359.72;4467414;32;20135;-75
2022/01/12 07:04:35;;;;;;;11.27;6.62;;;;;;;-6.78;91.96;100364.09;4464285;32;20136;-74
2022/01/12 07:07:03;;;;;;;18.83;7.62;;;;;;;-6.65;90.96;100366.72;4466432;32;20144;-74
2022/01/12 07:09:31;;;;;;;17.85;6.45;;;;;;;-6.61;90.42;100359.09;4472775;32;20160;-74
2022/01/12 07:11:58;;;;;;;15.65;6.72;;;;;;;-6.57;90.59;100361.66;4484153;32;20158;-74
2022/01/12 07:14:26;;;;;;;13.15;5.37;;;;;;;-6.41;89.78;100363.47;4483541;32;20835;-73
2022/01/12 07:16:54;;;;;;;15.00;6.72;;;;;;;-6.25;88.88;100375.44;4485008;31;20612;-74
2022/01/12 07:19:21;;;;;;;10.95;5.00;;;;;;;-6.19;88.85;100389.06;4485038;31;20112;-74
2022/01/12 07:21:49;;;;;;;17.62;6.57;;;;;;;-6.15;89.13;100388.25;4478662;31;20093;-75
2022/01/12 07:24:16;;;;;;;12.63;6.62;;;;;;;-6.26;89.90;100389.03;4482236;32;20535;-76
2022/01/12 07:26:46;;;;;;;15.63;6.82;;;;;;;-6.18;89.49;100398.44;4485743;31;20092;-75
2022/01/12 07:29:13;;;;;;;19.12;7.97;;;;;;;-6.07;88.79;100409.53;4484074;31;20105;-74
2022/01/12 07:31:41;;;;;;;18.33;6.87;;;;;;;-6.04;88.45;100406.16;4477599;31;20093;-74
2022/01/12 07:34:08;;;;;;;11.05;6.07;;;;;;;-6.12;88.82;100408.66;4474701;32;20445;-75
2022/01/12 07:36:35;;;;;;;18.45;7.82;;;;;;;-6.10;88.80;100402.75;4478189;32;20084;-74
2022/01/12 07:39:02;;;;;;;19.42;7.32;;;;;;;-6.13;89.11;100406.94;4475989;32;20514;-74
2022/01/12 07:41:29;;;;;;;11.40;6.28;;;;;;;-5.97;88.24;100405.34;4481084;32;20100;-74
2022/01/12 07:43:56;;;;;;;21.65;5.68;;;;;;;-5.86;87.27;100405.34;4477245;31;20084;-75
2022/01/12 07:46:24;;;;;;;27.20;6.57;;;;;;;-5.84;87.02;100398.53;4480249;32;20159;-74
2022/01/12 07:48:51;;;;;;;9.05;5.03;;;;;;;-5.68;86.49;100394.38;4476243;32;20134;-75
2022/01/12 07:51:18;;;;;;;14.05;6.47;;;;;;;-5.74;86.23;100398.62;4474772;32;20500;-74
2022/01/12 07:53:46;;;;;;;15.93;6.85;;;;;;;-5.75;86.02;100408.81;4476582;32;20097;-75
2022/01/12 07:56:13;;;;;;;14.40;5.95;;;;;;;-5.61;85.54;100412.25;4479847;31;20564;-76
2022/01/12 07:58:40;;;;;;;12.65;5.53;;;;;;;-5.43;84.10;100421.69;4479037;32;20152;-75
2022/01/12 08:01:07;;;;;;;15.27;6.60;;;;;;;-5.36;83.29;100419.97;4475439;32;20486;-75
2022/01/12 08:03:35;;;;;;;18.23;7.62;;;;;;;-5.41;83.27;100426.78;4483509;32;20478;-75
2022/01/12 08:06:02;;;;;;;17.52;7.70;;;;;;;-5.28;82.49;100431.09;4491222;31;20525;-75
2022/01/12 08:08:29;;;;;;;14.35;6.75;;;;;;;-5.18;82.59;100429.38;4481943;31;20135;-74
2022/01/12 08:10:57;;;;;;;20.55;6.50;;;;;;;-5.08;82.49;100427.72;4481218;31;20108;-74
2022/01/12 08:13:24;;;;;;;11.98;5.43;;;;;;;-5.14;81.81;100420.88;4484178;31;20159;-74
2022/01/12 08:15:51;;;;;;;13.62;6.37;;;;;;;-5.09;82.32;100429.41;4477577;32;20092;-73
2022/01/12 08:18:18;;;;;;;16.67;6.93;;;;;;;-5.07;83.00;100425.16;4480308;31;20145;-74
2022/01/12 08:20:45;;;;;;;16.27;7.32;;;;;;;-5.13;82.70;100431.94;4482374;31;20108;-74
2022/01/12 08:23:13;;;;;;;16.00;7.05;;;;;;;-5.08;82.30;100417.50;4482628;31;20100;-74
2022/01/12 08:25:40;;;;;;;21.48;8.40;;;;;;;-5.02;82.30;100428.56;4483398;31;20601;-74
2022/01/12 08:28:08;;;;;;;15.90;7.68;;;;;;;-4.96;81.70;100425.16;4481354;32;20405;-74
2022/01/12 08:30:35;;;;;;;21.17;8.55;;;;;;;-4.98;81.38;100437.09;4483316;31;20127;-73
2022/01/12 08:33:04;;;;;;;21.95;6.75;;;;;;;-4.89;81.76;100443.91;4479161;31;20167;-73
2022/01/12 08:35:32;;;;;;;18.37;6.55;;;;;;;-4.93;80.95;100453.28;4477704;32;20442;-73
2022/01/12 08:37:59;;;;;;;13.68;5.95;;;;;;;-4.84;81.43;100455.00;4476465;32;20108;-73
2022/01/12 08:40:27;;;;;;;11.48;5.90;;;;;;;-4.92;80.99;100454.13;4476661;32;20452;-73
2022/01/12 08:42:54;;;;;;;10.13;4.15;;;;;;;-4.78;79.70;100455.00;4478113;32;20108;-73
2022/01/12 08:45:22;;;;;;;19.12;6.62;;;;;;;-4.72;79.37;100460.13;4481811;31;20553;-75
2022/01/12 08:47:51;;;;;;;12.45;6.25;;;;;;;-4.57;79.18;100461.84;4475753;32;20092;-74
2022/01/12 08:50:18;;;;;;;14.45;6.53;;;;;;;-4.56;78.78;100460.97;4479057;32;20089;-73
2022/01/12 08:52:47;;;;;;;26.37;6.72;;;;;;;-4.46;78.21;100452.44;4481994;31;20113;-73
2022/01/12 08:55:18;;;;;;;22.55;7.35;;;;;;;-4.30;77.23;100454.97;4484886;31;20096;-71
2022/01/12 08:57:45;;;;;;;19.23;7.28;;;;;;;-4.33;76.46;100453.28;4484283;31;20164;-72
2022/01/12 09:00:13;;;;;;;17.98;7.87;;;;;;;-4.30;76.66;100457.53;4476978;31;20092;-72
2022/01/12 09:02:41;;;;;;;14.85;7.12;;;;;;;-4.25;76.46;100457.53;4476754;31;20135;-72
2022/01/12 09:05:09;;;;;;;23.48;6.97;;;;;;;-4.07;75.38;100459.19;4480249;31;20144;-73
2022/01/12 09:07:36;;;;;;;15.77;6.72;;;;;;;-3.91;75.30;100453.19;4479657;31;20104;-72
2022/01/12 09:10:05;;;;;;;19.20;6.20;;;;;;;-3.93;74.50;100458.31;4477137;32;20157;-72
2022/01/12 09:12:32;;;;;;;12.70;5.35;;;;;;;-3.68;74.21;100450.56;4480764;31;20427;-73
2022/01/12 09:15:00;;;;;;;20.65;7.25;;;;;;;-3.71;72.24;100455.69;4475691;32;20137;-73
2022/01/12 09:17:28;;;;;;;15.20;6.37;;;;;;;-3.65;72.38;100448.00;4483899;31;20105;-75
2022/01/12 09:20:00;;;;;;;15.98;6.90;;;;;;;-3.64;71.34;100446.28;4480207;31;20085;-73
2022/01/12 09:22:27;;;;;;;13.85;6.12;;;;;;;-3.50;70.41;100447.06;4475535;32;20486;-73
2022/01/12 09:24:54;;;;;;;16.00;6.43;;;;;;;-3.42;70.34;100453.00;4479857;32;20084;-72
2022/01/12 09:27:21;;;;;;;15.45;6.28;;;;;;;-3.30;69.80;100451.25;4477268;31;20409;-75
2022/01/12 09:29:49;;;;;;;14.13;5.40;;;;;;;-3.13;69.78;100439.19;4476540;32;20180;-73
2022/01/12 09:32:16;;;;;;;17.62;7.03;;;;;;;-3.14;69.09;100450.28;4479795;31;20127;-73
2022/01/12 09:34:43;;;;;;;12.82;5.53;;;;;;;-3.00;72.02;100451.91;4479043;32;20100;-74
2022/01/12 09:37:11;;;;;;;16.10;6.70;;;;;;;-2.87;72.40;100448.41;4481174;31;20147;-72
2022/01/12 09:39:38;;;;;;;19.12;6.82;;;;;;;-2.81;70.94;100448.38;4474108;31;20105;-72
2022/01/12 09:42:06;;;;;;;19.05;7.95;;;;;;;-2.88;72.37;100445.03;4476185;32;20132;-72
2022/01/12 09:44:37;;;;;;;20.48;7.30;;;;;;;-2.86;nan;100450.97;4476544;31;20135;-72
2022/01/12 09:47:06;;;;;;;25.37;9.18;;;;;;;-3.10;73.20;100452.00;4480586;32;20100;-72
2022/01/12 09:49:34;;;;;;;19.10;7.05;;;;;;;-3.06;73.49;100458.81;4468218;31;234897;-72
2022/01/12 09:52:02;;;;;;;16.50;7.93;;;;;;;-3.02;73.25;100459.62;4475252;31;20100;-72
2022/01/12 09:54:30;;;;;;;18.27;7.95;;;;;;;-3.11;73.33;100459.69;4472902;32;20088;-72
2022/01/12 09:56:57;;;;;;;24.48;8.55;;;;;;;-3.07;73.82;100458.81;4475112;32;20093;-72
2022/01/12 09:59:26;;;;;;;21.62;8.55;;;;;;;-3.04;74.43;100464.75;4475684;32;20513;-72
2022/01/12 10:01:54;;;;;;;18.25;7.65;;;;;;;-3.10;74.49;100454.56;4475756;31;20101;-72
2022/01/12 10:04:24;;;;;;;18.33;7.90;;;;;;;-3.01;73.55;100457.91;4472304;31;20145;-72
2022/01/12 10:07:03;;;;;;;20.45;8.43;;;;;;;-2.86;72.86;100462.97;4473008;32;20434;-71
2022/01/12 10:09:34;;;;;;;18.30;6.97;;;;;;;-3.01;74.99;100465.59;4473634;32;20115;-71
2022/01/12 10:12:08;;;;;;;22.37;7.35;;;;;;;-2.88;73.64;100457.84;4480086;32;20130;-71
2022/01/12 10:14:58;;;;;;;21.35;7.68;;;;;;;-2.88;73.77;100454.41;4481174;31;20083;-71
2022/01/12 10:17:33;;;;;;;12.88;6.62;;;;;;;-2.97;72.30;100457.87;4471597;32;20109;-72
2022/01/12 10:20:08;;;;;;;17.48;6.40;;;;;;;-2.73;72.75;100459.41;4480526;32;20088;-71
2022/01/12 10:22:40;;;;;;;14.65;6.70;;;;;;;-2.80;71.66;100459.47;4481275;31;20115;-71
2022/01/12 10:25:19;;;;;;;15.68;6.05;;;;;;;-2.69;72.61;100460.25;4471085;32;20097;-71
2022/01/12 10:27:48;;;;;;;25.62;7.60;;;;;;;-2.72;72.02;100452.59;4475155;31;20172;-71
2022/01/12 10:30:21;;;;;;;24.35;9.20;;;;;;;-2.60;73.06;100454.22;4478310;32;20092;-70
2022/01/12 10:33:04;;;;;;;28.30;10.15;;;;;;;-2.40;74.13;100447.19;4477140;32;20092;-72
2022/01/12 10:35:35;;;;;;;16.30;6.50;;;;;;;-2.41;73.38;100448.03;4480513;31;20150;-71
2022/01/12 10:38:22;;;;;;;21.25;7.90;;;;;;;-2.32;72.79;100462.50;4479387;32;20128;-72
2022/01/12 10:40:53;;;;;;;16.52;7.07;;;;;;;-2.52;71.32;100460.13;4477213;32;20518;-72
2022/01/12 10:43:43;;;;;;;28.17;8.35;;;;;;;-2.34;71.69;100459.94;4481830;31;20118;-70
2022/01/12 10:46:14;;;;;;;22.80;8.27;;;;;;;-2.16;70.39;100451.22;4479931;31;20096;-71
2022/01/12 10:48:50;;;;;;;25.10;8.52;;;;;;;-2.11;71.64;100452.91;4473771;31;20160;-71
2022/01/12 10:51:22;;;;;;;15.30;7.37;;;;;;;-2.09;70.26;100446.91;4478467;32;20119;-71
2022/01/12 10:53:51;;;;;;;21.70;8.38;;;;;;;-2.18;69.22;100452.09;4479115;31;20105;-71
2022/01/12 10:56:23;;;;;;;23.90;8.70;;;;;;;-2.19;69.04;100437.59;4481347;31;20080;-70
2022/01/12 10:58:52;;;;;;;21.67;9.05;;;;;;;-2.07;68.80;100445.16;4479924;31;20118;-71
2022/01/12 11:01:23;;;;;;;27.10;10.38;;;;;;;-2.09;69.68;100441.78;4482343;31;20171;-71
2022/01/12 11:03:50;;;;;;;18.85;8.63;;;;;;;-1.86;70.62;100456.91;4478694;32;20108;-71
2022/01/12 11:06:17;;;;;;;24.80;9.70;;;;;;;-1.96;67.43;100447.59;4475679;31;20517;-72
2022/01/12 11:08:48;;;;;;;20.85;9.40;;;;;;;-1.78;66.59;100443.97;4481492;32;20134;-72
2022/01/12 11:11:17;;;;;;;22.33;8.88;;;;;;;-1.80;65.20;100449.12;4475990;32;20506;-71
2022/01/12 11:13:46;;;;;;;22.08;9.38;;;;;;;-1.68;67.14;100440.44;4478164;31;20092;-72
2022/01/12 11:16:14;;;;;;;25.37;9.85;;;;;;;-1.85;66.63;100445.75;4476731;31;20145;-73
2022/01/12 11:18:42;;;;;;;19.48;8.23;;;;;;;-1.80;67.24;100448.31;4478619;32;20473;-72
2022/01/12 11:21:14;;;;;;;19.52;8.05;;;;;;;-1.65;66.82;100449.81;4472256;31;20123;-72
2022/01/12 11:23:43;;;;;;;25.67;9.65;;;;;;;-1.65;67.47;100452.38;4473164;32;20119;-72
2022/01/12 11:26:19;;;;;;;22.85;9.38;;;;;;;-1.76;67.62;100454.25;4478321;32;20156;-71
2022/01/12 11:28:48;;;;;;;31.58;9.88;;;;;;;-1.77;67.13;100447.41;4476643;32;20459;-72
2022/01/12 11:31:19;;;;;;;26.95;10.93;;;;;;;-1.68;66.87;100453.28;4473264;32;20555;-72
2022/01/12 11:33:48;;;;;;;20.83;9.02;;;;;;;-1.59;66.80;100454.03;4478169;31;20147;-71
2022/01/12 11:36:27;;;;;;;21.65;10.32;;;;;;;-1.56;65.41;100456.56;4479811;31;20098;-72
2022/01/12 11:39:01;;;;;;;22.02;9.75;;;;;;;-1.63;66.53;100453.25;4483232;32;20085;-73
2022/01/12 11:41:30;;;;;;;21.85;9.50;;;;;;;-1.62;66.54;100450.66;4483110;31;20088;-73
2022/01/12 11:43:58;;;;;;;28.00;9.52;;;;;;;-1.51;66.19;100444.53;4486209;31;20111;-72
2022/01/12 11:46:29;;;;;;;21.00;7.97;;;;;;;-1.36;65.30;100441.75;4483656;31;20104;-72
2022/01/12 11:48:57;;;;;;;22.80;9.70;;;;;;;-1.39;64.39;100440.94;4482593;31;20120;-73
2022/01/12 11:51:36;;;;;;;28.73;9.40;;;;;;;-1.37;63.38;100439.22;4475300;32;20180;-73
2022/01/12 11:54:15;;;;;;;23.00;9.45;;;;;;;-1.40;64.11;100434.94;4477482;32;20096;-73
2022/01/12 11:56:58;;;;;;;20.98;8.63;;;;;;;-1.34;63.87;100431.44;4479033;32;20135;-72
2022/01/12 11:59:54;;;;;;;30.88;11.40;;;;;;;-1.39;63.33;100423.81;4481549;32;20510;-72
2022/01/12 12:02:36;;;;;;;26.75;11.23;;;;;;;-1.41;65.94;100429.81;4477448;32;20123;-72
2022/01/12 12:05:12;;;;;;;33.60;11.30;;;;;;;-1.32;67.33;100425.44;4481123;31;20100;-72
2022/01/12 12:07:49;;;;;;;31.95;11.57;;;;;;;-1.33;67.09;100428.84;4482206;32;20126;-72
2022/01/12 12:10:28;;;;;;;31.17;12.00;;;;;;;-1.32;67.54;100424.56;4479796;32;20181;-73
2022/01/12 12:12:56;;;;;;;31.98;14.27;;;;;;;-1.33;68.59;100428.84;4478807;31;20934;-73
2022/01/12 12:15:25;;;;;;;33.10;12.57;;;;;;;-1.36;68.59;100435.75;4479152;32;20089;-73
2022/01/12 12:17:54;;;;;;;32.20;12.20;;;;;;;-1.39;68.67;100418.66;4481965;31;20092;-72
2022/01/12 12:20:23;;;;;;;29.12;12.13;;;;;;;-1.27;67.25;100423.63;4480362;31;20130;-72
2022/01/12 12:22:54;;;;;;;26.55;11.45;;;;;;;-1.52;67.32;100425.66;4476232;32;20485;-73
2022/01/12 12:25:30;;;;;;;33.78;11.25;;;;;;;-1.54;68.06;100422.28;4485201;31;20105;-72
2022/01/12 12:27:59;;;;;;;42.05;13.40;;;;;;;-1.44;68.30;100426.44;4481490;32;20439;-74
2022/01/12 12:30:28;;;;;;;32.58;14.50;;;;;;;-1.38;68.62;100420.34;4480889;31;20148;-73
2022/01/12 12:33:03;;;;;;;27.85;10.82;;;;;;;-1.35;68.03;100420.28;4480332;32;20088;-73
2022/01/12 12:35:32;;;;;;;33.83;13.82;;;;;;;-1.41;68.50;100440.94;4477954;32;20166;-72
2022/01/12 12:38:06;;;;;;;32.78;11.38;;;;;;;-1.47;69.09;100443.59;4479380;31;20160;-72
2022/01/12 12:40:36;;;;;;;23.52;7.57;;;;;;;-1.47;69.17;100433.31;4475710;32;20134;-73
2022/01/12 12:43:04;;;;;;;31.30;12.18;;;;;;;-1.56;68.93;100444.59;4482254;31;20118;-73
2022/01/12 12:45:43;;;;;;;33.78;11.40;;;;;;;-1.55;69.67;100442.84;4484293;31;20383;-72